Time;durP1;ratioP1;P1;durP2;ratioP2;P2;SDS_P1;SDS_P2;PMS_P1;PMS_P2;Temp;Humidity;BMP_temperature;BMP_pressure;BME280_temperature;BME280_humidity;BME280_pressure;Samples;Min_cycle;Max_cycle;Signal;HPM_P1;HPM_P2
2022/11/14 00:01:29;;;;;;;14.45;11.98;;;;;;;21.80;47.35;96022.41;5018066;28;20036;-62
2022/11/14 00:03:54;;;;;;;15.10;11.82;;;;;;;21.76;47.45;96021.84;5052408;28;20094;-68
2022/11/14 00:06:20;;;;;;;15.90;11.75;;;;;;;21.61;47.57;96010.28;5051773;28;20036;-65
2022/11/14 00:08:45;;;;;;;14.48;11.55;;;;;;;21.76;47.50;96021.84;5033929;28;20563;-65
2022/11/14 00:11:11;;;;;;;13.65;11.65;;;;;;;21.75;47.61;96025.78;5052309;28;20057;-66
2022/11/14 00:13:36;;;;;;;15.52;12.32;;;;;;;21.74;47.55;96029.72;5053419;28;20611;-67
2022/11/14 00:16:01;;;;;;;14.60;12.63;;;;;;;21.77;47.29;96020.63;5051850;28;20056;-63
2022/11/14 00:18:27;;;;;;;16.27;12.77;;;;;;;21.74;47.48;96016.16;5050948;28;20206;-63
2022/11/14 00:20:52;;;;;;;14.98;11.82;;;;;;;20.71;47.34;95895.81;5054232;28;20032;-66
2022/11/14 00:23:19;;;;;;;17.15;12.90;;;;;;;21.71;47.55;96025.25;5036311;28;20044;-63
2022/11/14 00:25:44;;;;;;;14.77;12.18;;;;;;;21.70;47.51;96019.06;5052926;28;20048;-66
2022/11/14 00:28:10;;;;;;;15.35;12.00;;;;;;;21.56;47.46;96002.78;5033384;28;20463;-66
2022/11/14 00:30:35;;;;;;;15.02;11.85;;;;;;;21.71;47.37;96025.25;5050771;28;20360;-65
2022/11/14 00:33:00;;;;;;;15.40;12.35;;;;;;;20.51;47.35;95850.34;5053694;28;20024;-66
2022/11/14 00:35:26;;;;;;;15.82;12.45;;;;;;;21.68;47.65;96034.34;5051774;28;20071;-65
2022/11/14 00:37:51;;;;;;;15.63;12.23;;;;;;;19.61;47.05;95718.91;5050944;28;20052;-67
2022/11/14 00:40:17;;;;;;;16.42;12.40;;;;;;;20.72;47.25;95881.03;5033797;28;21048;-61
2022/11/14 00:42:43;;;;;;;15.05;12.05;;;;;;;21.64;47.67;96025.63;5052948;28;20025;-67
2022/11/14 00:45:09;;;;;;;14.88;11.60;;;;;;;21.65;47.52;96024.41;5034583;28;20058;-61
2022/11/14 00:47:34;;;;;;;15.23;12.00;;;;;;;21.64;47.55;96028.34;5032251;28;20040;-63
2022/11/14 00:50:00;;;;;;;16.75;13.30;;;;;;;20.45;47.36;95851.47;5033344;28;20477;-66
2022/11/14 00:52:25;;;;;;;15.15;11.90;;;;;;;21.60;47.56;96011.50;5035154;28;20464;-64
2022/11/14 00:54:51;;;;;;;15.55;12.52;;;;;;;21.61;47.75;96021.13;5052108;28;20416;-67
2022/11/14 00:57:16;;;;;;;15.25;12.23;;;;;;;21.37;47.50;95982.47;5052651;28;20040;-62
2022/11/14 00:59:41;;;;;;;15.55;12.45;;;;;;;21.60;47.43;96014.22;5033378;28;20485;-64
2022/11/14 01:02:07;;;;;;;16.45;12.60;;;;;;;21.58;47.50;96022.09;5053061;28;20063;-65
2022/11/14 01:04:32;;;;;;;16.23;12.30;;;;;;;21.58;47.60;96017.41;5052201;28;20842;-64
2022/11/14 01:06:58;;;;;;;15.40;12.40;;;;;;;21.58;47.42;96011.97;5050623;28;20144;-62
2022/11/14 01:09:23;;;;;;;16.52;12.70;;;;;;;21.40;47.59;95984.25;5017882;28;20556;-63
2022/11/14 01:11:49;;;;;;;15.07;12.45;;;;;;;20.39;47.51;95837.06;5052935;28;20040;-66
2022/11/14 01:14:14;;;;;;;15.60;12.15;;;;;;;21.57;47.78;96009.75;5012685;28;20815;-65
2022/11/14 01:16:40;;;;;;;17.45;13.32;;;;;;;21.44;47.65;95990.97;5050682;28;20598;-67
2022/11/14 01:19:05;;;;;;;16.15;12.15;;;;;;;21.50;47.36;96004.69;5009129;28;20487;-65
2022/11/14 01:21:31;;;;;;;14.55;11.77;;;;;;;21.51;47.63;96017.06;5027696;28;20063;-68
2022/11/14 01:23:56;;;;;;;16.50;13.00;;;;;;;20.58;47.43;95868.19;5052440;28;20032;-65
2022/11/14 01:26:22;;;;;;;16.02;12.65;;;;;;;21.33;47.49;95984.66;5051341;28;20048;-67
2022/11/14 01:28:47;;;;;;;15.10;12.07;;;;;;;21.51;47.50;96003.47;5016244;28;20270;-64
2022/11/14 01:31:17;;;;;;;16.10;12.68;;;;;;;21.48;47.62;96001.69;5033810;28;20041;-63
2022/11/14 01:33:43;;;;;;;16.27;13.27;;;;;;;21.41;47.41;95991.19;5050686;28;20055;-63
2022/11/14 01:36:09;;;;;;;15.88;12.38;;;;;;;21.47;47.49;95990.06;5018508;28;20033;-67
2022/11/14 01:38:34;;;;;;;16.30;12.88;;;;;;;21.28;47.45;95960.13;5033114;28;20059;-62
2022/11/14 01:41:00;;;;;;;17.52;13.07;;;;;;;21.46;47.68;95993.25;5053492;28;20460;-66
2022/11/14 01:43:29;;;;;;;15.25;12.70;;;;;;;21.45;47.59;95991.75;5051984;28;20065;-66
2022/11/14 01:46:22;;;;;;;16.13;12.63;;;;;;;21.44;47.46;95990.25;5051853;28;20826;-66
2022/11/14 01:48:52;;;;;;;15.98;12.57;;;;;;;21.42;47.61;95979.09;5014506;28;20041;-63
2022/11/14 01:51:23;;;;;;;16.52;12.63;;;;;;;21.25;47.49;95956.38;5035043;28;20076;-67
2022/11/14 01:53:50;;;;;;;14.88;12.55;;;;;;;21.42;47.39;96009.00;5019805;28;20666;-66
2022/11/14 01:56:18;;;;;;;17.20;13.02;;;;;;;20.51;47.41;95838.75;5037421;28;20033;-65
2022/11/14 01:58:48;;;;;;;15.63;12.80;;;;;;;21.43;47.54;95967.00;5033988;28;20086;-66
2022/11/14 02:01:13;;;;;;;15.25;12.75;;;;;;;21.43;47.53;95972.44;5055929;28;20043;-64
2022/11/14 02:03:39;;;;;;;15.70;12.65;;;;;;;21.42;47.49;95970.97;5057308;28;20091;-66
2022/11/14 02:06:06;;;;;;;15.77;12.30;;;;;;;21.34;47.66;95967.13;5057121;28;20582;-65
2022/11/14 02:08:32;;;;;;;16.85;12.77;;;;;;;21.02;47.71;95905.66;5004337;28;20481;-66
2022/11/14 02:10:57;;;;;;;15.30;12.60;;;;;;;21.40;47.51;95962.50;5021662;28;20060;-61
2022/11/14 02:13:22;;;;;;;15.20;12.38;;;;;;;21.40;47.74;95988.94;5055485;28;20509;-66
2022/11/14 02:15:48;;;;;;;16.13;13.30;;;;;;;21.39;47.74;95963.75;5038288;28;21202;-65
2022/11/14 02:18:13;;;;;;;16.42;12.93;;;;;;;21.40;47.54;95964.50;5040558;28;20869;-65
2022/11/14 02:20:42;;;;;;;15.20;12.82;;;;;;;21.38;47.52;95958.78;5049089;28;20049;-66
2022/11/14 02:23:09;;;;;;;15.27;12.48;;;;;;;21.16;47.52;95926.59;5030299;28;20740;-64
2022/11/14 02:25:34;;;;;;;17.20;12.85;;;;;;;21.35;47.49;95965.91;5037318;28;20054;-63
2022/11/14 02:28:00;;;;;;;15.45;12.77;;;;;;;20.91;47.58;95904.00;5025835;28;20505;-61
2022/11/14 02:30:25;;;;;;;17.15;13.25;;;;;;;19.96;47.41;95749.59;5052209;28;20024;-63
2022/11/14 02:32:51;;;;;;;16.02;13.25;;;;;;;21.37;47.38;95974.31;5038399;28;20456;-67
2022/11/14 02:35:16;;;;;;;15.02;12.20;;;;;;;21.23;47.70;95969.69;5055331;28;20450;-65
2022/11/14 02:37:42;;;;;;;16.15;12.73;;;;;;;21.34;47.33;95958.97;5029869;28;20073;-67
2022/11/14 02:40:08;;;;;;;17.35;12.65;;;;;;;21.34;47.45;95958.22;5036965;28;20045;-63
2022/11/14 02:42:33;;;;;;;15.55;12.93;;;;;;;21.29;47.41;95962.38;5040334;28;20036;-66
2022/11/14 02:44:59;;;;;;;16.63;13.15;;;;;;;21.33;47.42;95967.59;5038291;28;20047;-64
2022/11/14 02:47:24;;;;;;;15.48;12.48;;;;;;;21.31;47.35;95954.47;5022747;28;20052;-61
2022/11/14 02:49:50;;;;;;;16.02;12.80;;;;;;;21.12;47.71;95931.50;5055986;28;20040;-66
2022/11/14 02:52:16;;;;;;;17.10;12.80;;;;;;;21.31;47.54;95957.19;5044189;28;20080;-67
2022/11/14 02:54:41;;;;;;;15.13;12.10;;;;;;;21.31;47.38;95954.47;5034085;28;20085;-65
2022/11/14 02:57:07;;;;;;;16.58;13.05;;;;;;;21.20;47.48;95948.91;5047730;28;20462;-67
2022/11/14 02:59:32;;;;;;;16.50;13.25;;;;;;;21.29;47.31;95956.19;5028831;28;20433;-64
2022/11/14 03:01:58;;;;;;;15.30;12.57;;;;;;;21.29;47.33;95956.94;5051890;28;20080;-68
2022/11/14 03:04:23;;;;;;;15.10;12.48;;;;;;;20.97;47.48;95897.47;5048052;28;20045;-62
2022/11/14 03:06:48;;;;;;;15.45;12.82;;;;;;;21.28;47.48;95947.28;5011339;28;20842;-65
2022/11/14 03:09:14;;;;;;;16.80;12.52;;;;;;;21.12;47.30;95926.06;5037172;28;20497;-67
2022/11/14 03:11:39;;;;;;;15.45;12.80;;;;;;;21.28;47.73;95950.00;5017774;28;20402;-61
2022/11/14 03:14:05;;;;;;;14.77;12.45;;;;;;;21.22;47.51;95949.16;5042747;28;20504;-65
2022/11/14 03:16:30;;;;;;;15.82;12.52;;;;;;;21.26;47.34;95946.28;5047931;28;20536;-65
2022/11/14 03:18:56;;;;;;;14.45;12.20;;;;;;;21.25;47.44;95945.50;5055195;28;20033;-66
2022/11/14 03:21:22;;;;;;;17.45;13.18;;;;;;;21.09;47.51;95926.25;5052547;28;20303;-66
2022/11/14 03:23:47;;;;;;;16.70;12.68;;;;;;;21.22;47.56;95946.44;5022017;28;20059;-63
2022/11/14 03:26:13;;;;;;;15.95;12.43;;;;;;;21.12;47.29;95930.72;5054771;28;20044;-64
2022/11/14 03:28:39;;;;;;;14.82;12.05;;;;;;;21.25;47.39;95945.50;5028397;28;20052;-65
2022/11/14 03:31:04;;;;;;;15.52;12.38;;;;;;;19.26;47.15;95650.38;5042660;28;20040;-61
2022/11/14 03:33:30;;;;;;;14.35;11.50;;;;;;;20.98;47.37;95915.22;5036373;28;20040;-65
2022/11/14 03:35:56;;;;;;;15.35;12.27;;;;;;;21.03;47.38;95922.69;5037266;28;20025;-66
2022/11/14 03:38:22;;;;;;;16.00;12.55;;;;;;;21.16;47.47;95956.47;5005215;28;20079;-66
2022/11/14 03:40:50;;;;;;;15.40;12.27;;;;;;;21.07;47.38;95926.72;5018707;28;20032;-62
2022/11/14 03:43:16;;;;;;;14.73;12.13;;;;;;;21.00;47.21;95908.13;5025186;28;20061;-66
2022/11/14 03:45:41;;;;;;;15.45;11.98;;;;;;;21.13;47.24;95926.81;5051142;28;20036;-66
2022/11/14 03:48:07;;;;;;;16.42;12.60;;;;;;;21.22;47.35;95951.88;5045418;28;20071;-64
2022/11/14 03:50:32;;;;;;;16.40;13.23;;;;;;;21.19;47.47;95947.38;5048093;28;20045;-66
2022/11/14 03:52:58;;;;;;;15.18;12.20;;;;;;;21.19;47.65;95950.09;5021586;28;20129;-63
2022/11/14 03:55:23;;;;;;;15.32;12.25;;;;;;;21.16;47.41;95942.16;5054235;28;20047;-66
2022/11/14 03:57:49;;;;;;;16.83;12.73;;;;;;;19.22;47.13;95649.06;5040546;28;20056;-67
2022/11/14 04:00:15;;;;;;;15.05;12.43;;;;;;;21.18;47.08;95943.19;5054363;28;20123;-64
2022/11/14 04:02:40;;;;;;;15.88;12.30;;;;;;;20.90;47.14;95897.84;5035348;28;20453;-62
2022/11/14 04:05:06;;;;;;;16.13;12.88;;;;;;;21.16;47.37;95937.47;5048724;28;20044;-66
2022/11/14 04:07:31;;;;;;;15.10;12.00;;;;;;;21.15;47.28;95941.41;5032814;28;20051;-67
2022/11/14 04:09:57;;;;;;;15.80;12.23;;;;;;;20.23;47.32;95796.13;5020881;28;20056;-66
2022/11/14 04:12:22;;;;;;;16.33;12.60;;;;;;;21.16;47.23;95931.28;5023918;28;20074;-63
2022/11/14 04:14:48;;;;;;;15.18;12.18;;;;;;;21.14;47.38;95931.78;5035892;28;20048;-67
2022/11/14 04:17:13;;;;;;;16.45;12.77;;;;;;;20.82;47.23;95893.25;5027536;28;20068;-66
2022/11/14 04:19:39;;;;;;;15.70;13.02;;;;;;;21.14;47.08;95939.91;5024683;28;20055;-62
2022/11/14 04:22:05;;;;;;;16.10;12.55;;;;;;;21.15;47.28;95936.00;5046265;28;20040;-63
2022/11/14 04:24:30;;;;;;;14.98;11.75;;;;;;;21.13;47.26;95970.25;5053841;28;20148;-66
2022/11/14 04:26:56;;;;;;;16.55;12.80;;;;;;;20.82;47.15;95895.97;5014851;28;20421;-67
2022/11/14 04:29:21;;;;;;;16.35;12.98;;;;;;;21.12;47.23;95933.44;5051998;28;20445;-64
2022/11/14 04:31:47;;;;;;;14.48;11.70;;;;;;;20.99;47.23;95917.47;5051971;28;20036;-66
2022/11/14 04:34:12;;;;;;;15.70;11.93;;;;;;;20.94;47.08;95916.66;5035637;28;20190;-64
2022/11/14 04:36:38;;;;;;;14.75;11.73;;;;;;;20.92;47.25;95900.09;5024754;28;20052;-64
2022/11/14 04:39:03;;;;;;;15.98;12.30;;;;;;;21.11;47.18;95935.44;5013170;28;20681;-66
2022/11/14 04:41:29;;;;;;;15.80;12.60;;;;;;;21.09;47.28;95932.44;5050402;28;20040;-66
2022/11/14 04:43:54;;;;;;;15.98;12.88;;;;;;;20.20;47.15;95797.81;5015048;28;20073;-64
2022/11/14 04:46:20;;;;;;;15.25;12.23;;;;;;;20.81;47.23;95894.50;5052733;28;20041;-67
2022/11/14 04:48:45;;;;;;;15.50;12.40;;;;;;;21.03;47.20;95977.00;4995805;28;20041;-64
2022/11/14 04:51:11;;;;;;;15.77;12.88;;;;;;;20.16;47.09;95794.56;5008616;28;20047;-66
2022/11/14 04:53:36;;;;;;;16.15;12.65;;;;;;;21.07;47.24;95940.28;5038760;28;20501;-64
2022/11/14 04:56:03;;;;;;;16.48;12.77;;;;;;;20.57;47.10;95848.47;5046909;28;20048;-66
2022/11/14 04:58:28;;;;;;;15.48;12.63;;;;;;;20.41;46.92;95829.22;5031281;28;20045;-63
2022/11/14 05:00:56;;;;;;;16.45;12.80;;;;;;;21.06;47.03;95925.25;5044796;28;20539;-67
2022/11/14 05:03:22;;;;;;;15.60;12.75;;;;;;;21.04;47.23;95924.94;5022178;28;20047;-67
2022/11/14 05:05:48;;;;;;;16.23;12.65;;;;;;;21.07;47.12;95929.44;5034936;28;20178;-67
2022/11/14 05:08:13;;;;;;;15.50;12.85;;;;;;;21.06;47.28;95927.97;5002627;28;20099;-63
2022/11/14 05:10:42;;;;;;;15.68;12.48;;;;;;;21.06;47.01;95949.69;5046333;28;20110;-62
2022/11/14 05:13:07;;;;;;;16.15;12.77;;;;;;;20.84;47.08;95899.00;5028635;28;20485;-65
2022/11/14 05:15:33;;;;;;;16.05;12.63;;;;;;;21.05;46.77;95931.88;5039978;28;20040;-65
2022/11/14 05:17:58;;;;;;;15.60;12.68;;;;;;;20.66;47.00;95888.31;5083055;22;20061;-77
2022/11/14 05:20:24;;;;;;;15.63;12.75;;;;;;;20.50;47.13;95858.94;5050215;28;20036;-77
2022/11/14 05:22:53;;;;;;;16.27;12.82;;;;;;;21.01;47.06;95942.19;5061291;28;20040;-78
2022/11/14 05:25:18;;;;;;;16.50;12.85;;;;;;;20.56;46.89;95878.78;5052930;28;20113;-78
2022/11/14 05:27:43;;;;;;;15.25;12.63;;;;;;;21.10;46.95;95939.34;5057029;28;20041;-80
2022/11/14 05:30:10;;;;;;;15.10;12.23;;;;;;;20.48;46.99;95850.53;5052814;28;20082;-78
2022/11/14 05:32:35;;;;;;;15.73;11.88;;;;;;;21.22;47.30;95946.44;5061353;28;20025;-78
2022/11/14 05:35:00;;;;;;;14.98;11.95;;;;;;;21.34;46.84;95948.09;5064543;28;20040;-78
2022/11/14 05:37:26;;;;;;;18.30;12.65;;;;;;;21.29;46.66;95924.34;5066737;28;20410;-78
2022/11/14 05:39:51;;;;;;;22.60;13.35;;;;;;;21.52;46.62;95942.44;5015629;28;20040;-78
2022/11/14 05:42:17;;;;;;;18.85;12.25;;;;;;;21.54;46.20;95929.16;5064813;28;20022;-78
2022/11/14 05:44:42;;;;;;;19.73;12.38;;;;;;;20.24;46.20;95727.88;5060778;28;20040;-78
2022/11/14 05:47:08;;;;;;;21.67;12.93;;;;;;;21.52;46.08;95912.56;5067733;28;20037;-79
2022/11/14 05:49:34;;;;;;;18.58;12.18;;;;;;;21.58;46.31;95918.81;5055036;28;20041;-79
2022/11/14 05:52:00;;;;;;;22.38;12.32;;;;;;;21.86;46.24;95945.09;5056071;28;20059;-79
2022/11/14 05:54:25;;;;;;;21.67;12.98;;;;;;;21.88;45.91;95947.34;5062218;28;20029;-79
2022/11/14 05:56:51;;;;;;;22.70;12.05;;;;;;;21.91;46.02;95940.97;5061274;28;20402;-78
2022/11/14 05:59:16;;;;;;;28.88;12.73;;;;;;;21.97;45.83;95940.56;5065616;28;20472;-79
2022/11/14 06:01:41;;;;;;;21.95;11.77;;;;;;;22.02;45.48;95953.47;5065942;28;20449;-79
2022/11/14 06:04:07;;;;;;;28.75;12.98;;;;;;;22.11;45.86;95956.03;5071236;28;20037;-78
2022/11/14 06:06:32;;;;;;;22.55;12.68;;;;;;;22.06;45.46;95932.25;5053876;28;20037;-79
2022/11/14 06:08:58;;;;;;;22.35;12.00;;;;;;;22.26;45.21;95945.84;5034151;28;20028;-79
2022/11/14 06:11:23;;;;;;;21.10;12.68;;;;;;;22.38;44.89;95952.91;5065968;28;20041;-79
2022/11/14 06:13:49;;;;;;;24.90;12.00;;;;;;;22.49;44.63;95953.00;5044713;28;20420;-79
2022/11/14 06:16:15;;;;;;;25.75;12.85;;;;;;;22.72;44.82;95966.34;5060622;28;20048;-79
2022/11/14 06:18:41;;;;;;;24.58;12.30;;;;;;;22.57;44.56;95959.50;5061348;28;20459;-77
2022/11/14 06:21:11;;;;;;;25.52;12.98;;;;;;;22.99;44.72;95966.59;5046230;28;20031;-78
2022/11/14 06:23:37;;;;;;;23.00;12.00;;;;;;;22.94;44.89;95972.00;5042779;28;20132;-77
2022/11/14 06:26:04;;;;;;;22.42;12.13;;;;;;;22.92;44.99;95963.53;5061539;28;20128;-79
2022/11/14 06:28:30;;;;;;;18.05;11.07;;;;;;;23.00;48.88;95959.94;5030900;28;20100;-77
2022/11/14 06:30:59;;;;;;;22.20;11.35;;;;;;;22.95;47.10;95947.00;5044447;28;20494;-79
2022/11/14 06:33:28;;;;;;;22.30;12.03;;;;;;;23.40;46.15;95965.16;5044235;28;20029;-79
2022/11/14 06:36:00;;;;;;;21.63;12.47;;;;;;;23.24;47.40;95963.06;5031037;28;20049;-78
2022/11/14 06:38:26;;;;;;;21.08;11.60;;;;;;;23.14;47.34;95964.50;5056332;28;20040;-79
2022/11/14 06:40:52;;;;;;;23.48;11.57;;;;;;;23.19;47.13;95955.59;5046814;28;20041;-79
2022/11/14 06:43:17;;;;;;;21.85;10.93;;;;;;;22.42;49.62;95869.06;5048234;28;20052;-79
2022/11/14 06:45:44;;;;;;;30.40;11.27;;;;;;;23.36;47.35;95961.16;5047509;28;20552;-78
2022/11/14 06:48:09;;;;;;;28.75;12.48;;;;;;;23.53;45.27;95940.97;5056684;28;20585;-78
2022/11/14 06:50:35;;;;;;;21.52;10.98;;;;;;;23.31;45.52;95919.00;5057536;28;20044;-78
2022/11/14 06:53:00;;;;;;;24.88;11.52;;;;;;;23.42;45.96;95951.78;5064943;28;20037;-78
2022/11/14 06:55:25;;;;;;;25.35;11.73;;;;;;;23.60;45.21;95956.84;5053601;28;20037;-78
2022/11/14 06:57:53;;;;;;;22.95;11.57;;;;;;;23.57;44.34;95946.91;5048408;28;20041;-78
2022/11/14 07:00:19;;;;;;;22.08;11.38;;;;;;;23.41;44.94;95928.50;5039059;28;20021;-79
2022/11/14 07:02:45;;;;;;;23.75;11.73;;;;;;;23.53;44.58;95952.59;5050961;28;20043;-79
2022/11/14 07:05:10;;;;;;;21.02;11.10;;;;;;;24.14;43.45;95940.75;5048377;28;20044;-79
2022/11/14 07:07:36;;;;;;;24.13;11.93;;;;;;;24.32;43.46;95940.31;5042971;28;20426;-79
2022/11/14 07:10:01;;;;;;;25.25;11.60;;;;;;;24.33;43.04;95936.34;5061231;28;20032;-79
2022/11/14 07:12:28;;;;;;;25.90;11.98;;;;;;;23.88;43.67;95929.25;5059524;28;20028;-81
2022/11/14 07:14:53;;;;;;;26.98;12.60;;;;;;;24.07;43.21;95941.22;5055796;28;20071;-77
2022/11/14 07:17:19;;;;;;;20.20;11.38;;;;;;;23.78;42.40;95855.53;5057754;28;20052;-80
2022/11/14 07:19:44;;;;;;;23.13;12.27;;;;;;;24.20;42.90;95911.50;5049324;28;20060;-77
2022/11/14 07:22:10;;;;;;;24.35;11.30;;;;;;;24.45;42.28;95948.78;5057578;28;20048;-78
2022/11/14 07:24:35;;;;;;;19.98;10.95;;;;;;;24.23;42.77;95948.72;5026433;28;20066;-77
2022/11/14 07:27:01;;;;;;;20.92;11.63;;;;;;;24.26;42.67;95947.72;5054834;28;20032;-77
2022/11/14 07:29:26;;;;;;;25.02;12.38;;;;;;;24.27;42.85;95951.94;5057337;28;20037;-78
2022/11/14 07:31:52;;;;;;;18.95;11.30;;;;;;;24.11;43.07;95947.19;5058708;28;20024;-78
2022/11/14 07:34:17;;;;;;;23.65;11.68;;;;;;;24.39;42.07;95901.59;5043330;28;20045;-79
2022/11/14 07:36:43;;;;;;;25.17;12.55;;;;;;;24.95;41.43;95948.34;5050642;28;20087;-78
2022/11/14 07:39:09;;;;;;;21.35;11.65;;;;;;;24.77;41.62;95933.66;5040830;28;20634;-78
2022/11/14 07:41:34;;;;;;;20.20;11.40;;;;;;;24.88;41.14;95937.91;5058486;28;20490;-80
2022/11/14 07:44:00;;;;;;;20.02;11.98;;;;;;;24.50;41.54;95940.63;5051210;28;20040;-78
2022/11/14 07:46:25;;;;;;;21.35;11.73;;;;;;;24.45;41.62;95907.81;5062061;28;20475;-79
2022/11/14 07:48:51;;;;;;;16.65;11.25;;;;;;;23.41;41.96;95787.50;5062614;28;20522;-78
2022/11/14 07:51:17;;;;;;;20.20;12.05;;;;;;;24.02;42.16;95889.34;5064337;28;20051;-79
2022/11/14 07:53:43;;;;;;;21.67;12.15;;;;;;;24.30;42.08;95936.56;5062373;28;20047;-79
2022/11/14 07:56:08;;;;;;;21.27;12.02;;;;;;;24.12;41.88;95905.00;5051371;28;20744;-79
2022/11/14 07:58:38;;;;;;;17.15;12.00;;;;;;;24.38;41.59;95932.91;5048354;28;20047;-79
2022/11/14 08:01:03;;;;;;;22.43;12.50;;;;;;;24.28;41.30;95945.25;5031000;28;20110;-80
2022/11/14 08:03:29;;;;;;;20.83;12.38;;;;;;;24.12;41.76;95913.19;5030558;28;20020;-80
2022/11/14 08:06:02;;;;;;;17.45;11.10;;;;;;;23.87;42.03;95895.03;5039912;28;21386;-80
2022/11/14 08:08:27;;;;;;;19.13;11.70;;;;;;;24.09;41.69;95925.09;5029126;28;20048;-80
2022/11/14 08:10:56;;;;;;;18.42;11.52;;;;;;;23.82;41.73;95880.63;5026993;28;20025;-80
2022/11/14 08:13:22;;;;;;;18.00;11.23;;;;;;;24.16;41.59;95927.34;5054135;28;20098;-80
2022/11/14 08:15:47;;;;;;;20.50;11.75;;;;;;;23.91;41.99;95892.78;5029555;28;20036;-79
2022/11/14 08:18:12;;;;;;;20.48;11.57;;;;;;;23.89;41.84;95895.25;5058946;28;20051;-79
2022/11/14 08:20:38;;;;;;;17.50;12.23;;;;;;;24.05;41.38;95921.88;5033283;28;20037;-79
2022/11/14 08:23:04;;;;;;;18.15;11.48;;;;;;;24.00;41.61;95903.47;5052045;28;20037;-80
2022/11/14 08:25:29;;;;;;;18.45;11.93;;;;;;;23.93;42.21;95920.34;5038299;28;20052;-80
2022/11/14 08:27:55;;;;;;;19.83;11.98;;;;;;;24.05;41.41;95930.06;5062800;28;20040;-80
2022/11/14 08:30:20;;;;;;;16.40;12.40;;;;;;;23.95;41.70;95914.38;5059445;28;20079;-79
2022/11/14 08:32:46;;;;;;;17.00;12.30;;;;;;;23.41;41.45;95831.09;5056926;28;20040;-80
2022/11/14 08:35:11;;;;;;;16.77;11.95;;;;;;;23.89;42.02;95917.09;5045654;28;20069;-79
2022/11/14 08:37:36;;;;;;;16.67;11.70;;;;;;;23.90;42.13;95915.88;5056821;28;20056;-80
2022/11/14 08:40:02;;;;;;;18.33;12.02;;;;;;;24.10;41.52;95907.47;5042961;28;20039;-79
2022/11/14 08:42:27;;;;;;;16.50;11.35;;;;;;;23.94;41.69;95908.16;5041982;28;20087;-80
2022/11/14 08:44:53;;;;;;;17.60;11.15;;;;;;;23.93;41.90;95920.34;5060339;28;20036;-79
2022/11/14 08:47:18;;;;;;;17.90;12.25;;;;;;;24.02;41.76;95911.94;5061962;28;20044;-79
2022/11/14 08:49:44;;;;;;;18.80;12.27;;;;;;;23.56;41.56;95858.19;5061089;28;20435;-80
2022/11/14 08:52:09;;;;;;;18.48;12.50;;;;;;;23.33;41.92;95826.59;5031649;28;20041;-79
2022/11/14 08:54:35;;;;;;;16.85;11.52;;;;;;;23.86;41.94;95900.22;5065463;28;20142;-78
2022/11/14 08:57:00;;;;;;;16.50;11.90;;;;;;;23.86;42.15;95902.97;5062008;28;20025;-79
2022/11/14 08:59:25;;;;;;;19.48;11.35;;;;;;;23.84;41.90;95899.97;5056213;28;20021;-80
2022/11/14 09:01:51;;;;;;;16.70;12.10;;;;;;;23.67;41.98;95863.69;5029069;28;20526;-79
2022/11/14 09:04:16;;;;;;;15.85;11.57;;;;;;;23.67;41.94;95869.16;5066158;28;20048;-80
2022/11/14 09:06:42;;;;;;;17.15;11.32;;;;;;;23.86;42.07;95886.59;5056591;28;20029;-79
2022/11/14 09:09:07;;;;;;;17.85;11.82;;;;;;;22.60;41.56;95699.94;5065610;28;20028;-79
2022/11/14 09:11:33;;;;;;;15.95;11.48;;;;;;;23.58;42.05;95833.91;5034439;28;20048;-79
2022/11/14 09:14:00;;;;;;;16.33;11.93;;;;;;;23.90;41.49;95877.66;5031606;28;20063;-79
2022/11/14 09:16:25;;;;;;;15.13;11.40;;;;;;;23.86;42.05;95881.13;5066337;28;20043;-79
2022/11/14 09:18:51;;;;;;;18.27;12.13;;;;;;;23.84;41.40;95861.78;5068397;28;20451;-80
2022/11/14 09:21:16;;;;;;;16.90;11.70;;;;;;;23.89;41.93;95869.97;5069094;28;20032;-79
2022/11/14 09:23:41;;;;;;;15.85;11.57;;;;;;;23.87;41.82;95861.56;5056673;28;20040;-79
2022/11/14 09:26:07;;;;;;;16.20;11.77;;;;;;;23.86;42.11;95853.84;5057971;28;20479;-79
2022/11/14 09:28:33;;;;;;;16.33;11.85;;;;;;;24.04;41.92;95854.88;5043847;28;20895;-79
2022/11/14 09:31:00;;;;;;;17.27;11.77;;;;;;;23.99;41.63;95857.59;5059104;28;20115;-79
2022/11/14 09:33:26;;;;;;;16.73;11.88;;;;;;;23.96;42.08;95859.34;5056053;28;20031;-79
2022/11/14 09:36:01;;;;;;;15.25;11.80;;;;;;;23.92;41.94;95858.81;5065878;28;20025;-79
2022/11/14 09:38:27;;;;;;;16.95;12.35;;;;;;;23.94;41.54;95858.31;5065650;28;20036;-79
2022/11/14 09:41:07;;;;;;;16.95;11.90;;;;;;;24.00;41.80;95857.09;5055954;28;20094;-80
2022/11/14 09:43:57;;;;;;;17.08;11.93;;;;;;;23.98;41.51;95851.38;5065211;28;20044;-78
2022/11/14 09:46:30;;;;;;;17.80;11.52;;;;;;;23.93;42.06;95838.50;5057593;28;20777;-79
2022/11/14 09:48:56;;;;;;;15.23;11.43;;;;;;;23.61;41.71;95794.75;5043541;28;20041;-79
2022/11/14 09:51:23;;;;;;;14.73;11.75;;;;;;;23.85;42.04;95825.06;5040106;28;20033;-78
2022/11/14 09:54:16;;;;;;;14.30;10.93;;;;;;;24.04;41.55;95835.78;5043824;28;20410;-79
2022/11/14 09:56:42;;;;;;;15.88;12.10;;;;;;;24.09;41.83;95835.03;5061479;28;20037;-78
2022/11/14 09:59:10;;;;;;;14.80;10.95;;;;;;;23.74;41.37;95787.63;5044058;28;20040;-79
2022/11/14 10:01:56;;;;;;;17.08;12.23;;;;;;;24.08;41.57;95828.09;5043654;28;20040;-79
2022/11/14 10:04:43;;;;;;;15.00;11.63;;;;;;;24.20;41.46;95829.59;5050831;28;20105;-79
2022/11/14 10:07:24;;;;;;;15.20;11.52;;;;;;;24.32;41.44;95811.22;5045241;28;20068;-79
2022/11/14 10:10:28;;;;;;;15.05;11.65;;;;;;;24.29;41.77;95810.25;5057012;28;20071;-78
2022/11/14 10:13:21;;;;;;;13.40;11.00;;;;;;;24.48;41.54;95811.25;5058873;28;20036;-78
2022/11/14 10:16:04;;;;;;;13.80;10.38;;;;;;;24.49;41.57;95802.56;5030602;28;20063;-78
2022/11/14 10:18:35;;;;;;;15.27;11.13;;;;;;;24.64;41.61;95802.31;5033612;28;20419;-82
2022/11/14 10:21:38;;;;;;;13.85;11.38;;;;;;;24.63;41.77;95801.56;5045121;28;20023;-79
2022/11/14 10:24:03;;;;;;;16.17;11.02;;;;;;;24.81;41.66;95805.78;5060588;28;20064;-79
2022/11/14 10:26:29;;;;;;;13.75;10.70;;;;;;;23.85;41.48;95639.59;5056087;28;20581;-80
2022/11/14 10:29:01;;;;;;;15.25;11.20;;;;;;;24.85;41.56;95791.34;5060798;28;20033;-79
2022/11/14 10:31:32;;;;;;;18.02;11.02;;;;;;;24.86;41.25;95781.91;5053752;28;20052;-80
2022/11/14 10:34:26;;;;;;;13.55;10.38;;;;;;;25.06;41.25;95784.38;5064799;28;20058;-79
2022/11/14 10:37:14;;;;;;;13.82;10.13;;;;;;;25.14;41.10;95779.91;5063915;28;20525;-79
2022/11/14 10:39:51;;;;;;;14.75;11.05;;;;;;;24.33;41.24;95668.81;5047619;28;20335;-79
2022/11/14 10:42:24;;;;;;;13.80;10.70;;;;;;;25.40;40.61;95769.34;5043541;28;20032;-81
2022/11/14 10:44:56;;;;;;;13.93;11.00;;;;;;;25.49;40.13;95760.84;5031849;28;20028;-79
2022/11/14 10:47:22;;;;;;;13.07;10.90;;;;;;;25.51;40.34;95769.28;5044266;28;20036;-79
2022/11/14 10:49:48;;;;;;;15.52;11.65;;;;;;;25.74;39.81;95759.72;5045649;28;20133;-80
2022/11/14 10:52:17;;;;;;;14.55;11.18;;;;;;;25.62;40.11;95763.75;5044185;28;20511;-79
2022/11/14 10:55:12;;;;;;;14.20;10.85;;;;;;;25.68;40.10;95750.81;5045691;28;20041;-79
2022/11/14 10:57:38;;;;;;;13.48;10.55;;;;;;;25.56;40.48;95771.22;5028505;28;20078;-79
2022/11/14 11:00:16;;;;;;;13.63;10.77;;;;;;;25.05;39.69;95638.06;5041693;28;20036;-77
2022/11/14 11:03:00;;;;;;;13.07;10.85;;;;;;;25.71;40.04;95741.59;5052463;28;20029;-80
2022/11/14 11:05:28;;;;;;;13.45;10.50;;;;;;;25.97;39.66;95735.19;5038090;28;20041;-78
2022/11/14 11:13:33;;;;;;;12.32;10.00;;;;;;;26.25;39.19;95732.22;5041645;28;20662;-78
2022/11/14 11:16:01;;;;;;;13.02;10.43;;;;;;;25.95;39.54;95701.38;5040179;28;20162;-78
2022/11/14 11:18:35;;;;;;;13.45;10.50;;;;;;;26.14;39.71;95765.16;5022603;28;20067;-78
2022/11/14 11:21:09;;;;;;;13.23;10.32;;;;;;;26.43;39.06;95732.34;5063872;28;20036;-78
2022/11/14 11:23:35;;;;;;;12.65;10.43;;;;;;;26.30;38.56;95693.88;5046713;28;20068;-78